Time;durP1;ratioP1;P1;durP2;ratioP2;P2;SDS_P1;SDS_P2;PMS_P1;PMS_P2;Temp;Humidity;BMP_temperature;BMP_pressure;BME280_temperature;BME280_humidity;BME280_pressure;Samples;Min_cycle;Max_cycle;Signal;HPM_P1;HPM_P2
2023/10/24 00:00:17;;;;;;;4.40;2.60;;;;;;;18.93;40.12;100682.79;109957;1279;21960;-71
2023/10/24 00:02:43;;;;;;;6.20;2.70;;;;;;;18.90;40.14;100683.14;109958;1286;22291;-70
2023/10/24 00:05:09;;;;;;;6.40;2.80;;;;;;;18.84;40.22;100682.11;109958;1273;21933;-69
2023/10/24 00:07:34;;;;;;;4.40;2.30;;;;;;;18.79;40.17;100686.92;109955;1279;22007;-59
2023/10/24 00:10:01;;;;;;;4.70;2.30;;;;;;;18.73;40.17;100688.80;109200;1286;1002294;-57
2023/10/24 00:12:27;;;;;;;6.80;3.00;;;;;;;18.67;40.30;100682.98;109959;1279;21923;-68
2023/10/24 00:14:55;;;;;;;4.30;2.50;;;;;;;18.64;40.33;100685.95;109972;1273;21976;-57
2023/10/24 00:17:21;;;;;;;5.10;2.20;;;;;;;18.62;40.36;100690.30;109961;1279;21941;-57
2023/10/24 00:19:46;;;;;;;3.80;2.00;;;;;;;18.59;40.39;100691.31;109953;1279;21874;-68
2023/10/24 00:22:12;;;;;;;4.50;2.30;;;;;;;18.57;40.46;100694.96;109961;1279;21925;-69
2023/10/24 00:24:37;;;;;;;5.70;2.80;;;;;;;18.56;40.44;100701.02;109944;1283;21853;-69
2023/10/24 00:27:03;;;;;;;6.60;2.50;;;;;;;18.55;40.54;100701.98;109960;1279;21932;-57
2023/10/24 00:29:28;;;;;;;7.20;2.40;;;;;;;18.52;40.56;100705.45;109946;1286;21975;-58
2023/10/24 00:31:54;;;;;;;8.50;2.80;;;;;;;18.42;40.70;100708.53;109963;1286;21918;-57
2023/10/24 00:34:20;;;;;;;6.40;2.50;;;;;;;18.22;40.70;100714.08;109963;1279;21999;-69
2023/10/24 00:36:45;;;;;;;6.00;2.50;;;;;;;18.11;40.82;100715.43;109952;1275;21997;-57
2023/10/24 00:39:11;;;;;;;5.10;2.50;;;;;;;18.05;40.89;100713.70;109964;1279;21991;-57
2023/10/24 00:41:37;;;;;;;5.80;2.90;;;;;;;18.04;40.91;100708.58;109965;1279;22004;-69
2023/10/24 00:44:02;;;;;;;6.00;2.60;;;;;;;18.07;41.04;100705.44;109945;1286;21942;-68
2023/10/24 00:46:28;;;;;;;5.50;2.70;;;;;;;18.10;41.03;100700.90;109951;1284;22009;-58
2023/10/24 00:48:54;;;;;;;4.80;2.00;;;;;;;18.12;40.98;100697.59;109928;1286;21942;-61
2023/10/24 00:51:20;;;;;;;6.70;2.60;;;;;;;18.15;41.03;100696.05;109919;1282;21963;-57
2023/10/24 00:53:46;;;;;;;5.80;2.30;;;;;;;18.20;41.01;100696.96;109957;1280;21932;-57
2023/10/24 00:56:12;;;;;;;6.80;2.50;;;;;;;18.21;41.07;100692.29;109950;1276;21978;-57
2023/10/24 00:58:37;;;;;;;5.20;2.20;;;;;;;18.20;40.98;100690.94;109923;1286;21951;-68
2023/10/24 01:01:04;;;;;;;5.60;2.50;;;;;;;18.18;41.01;100687.63;109912;1277;21993;-57
2023/10/24 01:03:30;;;;;;;5.10;2.30;;;;;;;18.17;41.07;100686.41;109977;1279;21919;-57
2023/10/24 01:05:56;;;;;;;5.20;2.30;;;;;;;18.13;41.11;100684.09;109958;1278;21989;-58
2023/10/24 01:08:21;;;;;;;6.10;2.20;;;;;;;18.07;41.12;100685.73;109846;1283;22292;-69
2023/10/24 01:10:47;;;;;;;6.50;2.40;;;;;;;18.01;41.22;100685.76;109967;1279;21934;-69
2023/10/24 01:13:12;;;;;;;6.30;2.60;;;;;;;17.95;41.19;100685.96;109908;1276;21933;-57
2023/10/24 01:15:38;;;;;;;5.20;2.30;;;;;;;17.94;41.28;100682.11;109927;1286;22093;-57
2023/10/24 01:18:03;;;;;;;4.70;2.20;;;;;;;17.96;41.23;100679.71;109968;1273;21943;-58
2023/10/24 01:20:29;;;;;;;9.80;2.30;;;;;;;17.99;41.27;100676.45;109872;1286;21915;-69
2023/10/24 01:22:55;;;;;;;5.90;2.90;;;;;;;17.99;41.17;100673.78;109953;1278;22018;-69
2023/10/24 01:25:20;;;;;;;4.80;2.40;;;;;;;17.99;41.17;100676.61;109933;1276;22428;-65
2023/10/24 01:27:53;;;;;;;5.50;2.30;;;;;;;17.96;41.03;100676.34;109925;1276;21837;-69
2023/10/24 01:30:19;;;;;;;7.30;3.10;;;;;;;17.90;41.16;100676.20;109953;1283;21941;-57
2023/10/24 01:32:44;;;;;;;5.00;2.50;;;;;;;17.84;41.11;100673.61;109957;1286;21940;-57
2023/10/24 01:35:10;;;;;;;5.10;2.30;;;;;;;17.76;41.08;100676.05;109956;1273;21922;-69
2023/10/24 01:37:36;;;;;;;5.60;2.50;;;;;;;17.65;41.09;100678.95;109977;1283;21849;-69
2023/10/24 01:40:05;;;;;;;9.50;2.60;;;;;;;17.55;41.25;100675.94;109953;1279;21961;-58
2023/10/24 01:42:31;;;;;;;5.50;2.70;;;;;;;17.49;41.24;100675.05;109962;1286;21927;-57
2023/10/24 01:44:56;;;;;;;6.20;2.10;;;;;;;17.45;41.33;100675.40;109951;1283;21952;-70
2023/10/24 01:47:22;;;;;;;4.20;2.30;;;;;;;17.43;41.45;100672.65;109888;1286;21932;-70
2023/10/24 01:49:48;;;;;;;6.80;2.80;;;;;;;17.41;41.54;100674.84;109916;1273;21952;-57
2023/10/24 01:52:13;;;;;;;7.00;2.70;;;;;;;17.38;41.56;100677.41;109921;1283;21868;-58
2023/10/24 01:54:39;;;;;;;6.90;2.40;;;;;;;17.35;41.53;100674.35;109921;1286;21940;-57
2023/10/24 01:57:04;;;;;;;4.60;2.70;;;;;;;17.31;41.66;100675.20;109939;1283;21856;-70
2023/10/24 01:59:30;;;;;;;4.10;2.20;;;;;;;17.28;41.72;100675.84;109982;1286;21932;-57
2023/10/24 02:01:55;;;;;;;4.50;2.30;;;;;;;17.24;41.79;100673.83;109926;1286;21999;-69
2023/10/24 02:04:21;;;;;;;6.90;2.90;;;;;;;17.20;41.90;100675.20;109883;1279;21971;-69
2023/10/24 02:06:47;;;;;;;3.60;2.00;;;;;;;17.18;42.03;100676.70;109933;1285;21944;-69
2023/10/24 02:09:13;;;;;;;5.50;2.60;;;;;;;17.18;42.14;100682.21;109930;1281;21949;-57
2023/10/24 02:11:39;;;;;;;4.20;2.50;;;;;;;17.18;42.28;100685.40;109957;1283;21938;-68
2023/10/24 02:14:04;;;;;;;5.50;2.70;;;;;;;17.20;42.50;100681.80;109970;1286;21905;-67
2023/10/24 02:16:30;;;;;;;5.40;2.50;;;;;;;17.22;42.59;100680.66;109905;1286;22016;-70
2023/10/24 02:18:55;;;;;;;5.20;2.50;;;;;;;17.23;42.74;100676.88;109932;1281;21939;-57
2023/10/24 02:21:21;;;;;;;4.90;2.80;;;;;;;17.25;42.81;100679.30;109922;1285;21927;-57
2023/10/24 02:23:46;;;;;;;5.10;2.80;;;;;;;17.27;42.95;100677.28;109927;1279;22018;-57
2023/10/24 02:26:15;;;;;;;6.20;2.60;;;;;;;17.29;42.92;100676.86;109923;1279;21973;-57
2023/10/24 02:28:41;;;;;;;5.20;2.40;;;;;;;17.33;42.98;100670.33;109919;1285;21996;-57
2023/10/24 02:31:07;;;;;;;4.10;2.10;;;;;;;17.37;42.95;100669.83;109890;1283;22444;-69
2023/10/24 02:33:32;;;;;;;6.00;2.30;;;;;;;17.41;42.88;100667.23;109948;1282;22421;-57
2023/10/24 02:36:08;;;;;;;4.40;2.40;;;;;;;17.43;42.84;100668.02;109931;1279;21931;-69
2023/10/24 02:38:34;;;;;;;5.70;2.80;;;;;;;17.45;42.77;100670.60;109919;1277;22455;-57
2023/10/24 02:40:59;;;;;;;6.70;2.60;;;;;;;17.44;42.83;100673.48;109921;1278;22428;-57
2023/10/24 02:43:25;;;;;;;16.00;3.40;;;;;;;17.43;42.73;100676.73;109945;1276;21970;-69
2023/10/24 02:45:51;;;;;;;14.20;3.60;;;;;;;17.39;42.72;100681.27;109911;1286;22008;-57
2023/10/24 02:48:16;;;;;;;11.50;3.20;;;;;;;17.36;42.71;100682.63;109939;1283;22188;-69
2023/10/24 02:50:42;;;;;;;16.60;3.30;;;;;;;17.32;42.75;100682.05;109922;1283;21941;-57
2023/10/24 02:53:08;;;;;;;11.10;2.60;;;;;;;17.28;42.73;100680.41;109923;1276;21979;-57
2023/10/24 02:55:35;;;;;;;7.60;2.40;;;;;;;17.26;42.76;100685.27;109957;1286;21945;-57
2023/10/24 02:58:00;;;;;;;8.60;2.50;;;;;;;17.26;42.79;100688.50;109950;1273;21943;-57
2023/10/24 03:00:26;;;;;;;4.80;2.60;;;;;;;17.26;42.67;100684.06;109945;1286;21948;-58
2023/10/24 03:02:52;;;;;;;5.60;2.90;;;;;;;17.26;42.69;100679.11;109970;1276;21939;-69
2023/10/24 03:05:18;;;;;;;6.20;3.20;;;;;;;17.26;42.65;100675.20;109978;1278;21938;-69
2023/10/24 03:07:44;;;;;;;6.20;3.10;;;;;;;17.26;42.70;100672.01;109949;1279;21917;-69
2023/10/24 03:10:09;;;;;;;5.80;3.10;;;;;;;17.24;42.65;100670.45;109945;1283;21978;-57
2023/10/24 03:12:35;;;;;;;4.90;2.40;;;;;;;17.23;42.67;100674.20;109966;1286;21906;-58
2023/10/24 03:15:01;;;;;;;7.00;2.70;;;;;;;17.22;42.74;100675.67;109935;1279;21970;-57
2023/10/24 03:17:26;;;;;;;5.60;2.30;;;;;;;17.19;42.76;100677.20;109965;1279;22032;-63
2023/10/24 03:19:52;;;;;;;4.70;2.50;;;;;;;17.16;42.80;100676.41;109932;1280;21926;-68
2023/10/24 03:22:18;;;;;;;5.50;2.40;;;;;;;17.14;42.96;100676.33;109966;1276;22408;-58
2023/10/24 03:24:43;;;;;;;8.60;3.20;;;;;;;17.13;42.99;100678.12;109960;1283;21925;-69
2023/10/24 03:27:12;;;;;;;4.70;2.80;;;;;;;17.10;43.04;100678.40;109188;1286;1002604;-58
2023/10/24 03:29:40;;;;;;;7.40;2.80;;;;;;;17.07;43.08;100681.15;109954;1283;21983;-69
2023/10/24 03:32:06;;;;;;;9.00;2.80;;;;;;;17.04;43.18;100679.67;109952;1279;21929;-57
2023/10/24 03:34:34;;;;;;;7.10;3.00;;;;;;;17.02;43.19;100680.63;109949;1282;21945;-68
2023/10/24 03:37:00;;;;;;;9.90;2.90;;;;;;;17.02;43.34;100685.23;109962;1273;21907;-69
2023/10/24 03:39:26;;;;;;;5.60;2.60;;;;;;;17.02;43.38;100685.23;109955;1284;22086;-68
2023/10/24 03:41:52;;;;;;;7.40;2.80;;;;;;;17.05;43.41;100684.77;109955;1279;22025;-57
2023/10/24 03:44:17;;;;;;;4.40;2.40;;;;;;;17.12;43.39;100680.30;109961;1279;21966;-68
2023/10/24 03:46:43;;;;;;;6.60;2.90;;;;;;;17.19;43.51;100678.44;109199;1279;1002689;-59
2023/10/24 03:49:08;;;;;;;6.60;2.60;;;;;;;17.25;43.46;100679.47;109967;1286;21938;-68
2023/10/24 03:51:34;;;;;;;8.20;2.70;;;;;;;17.30;43.46;100678.23;109960;1279;22005;-57
2023/10/24 03:54:00;;;;;;;7.30;3.40;;;;;;;17.35;43.49;100676.64;109967;1279;21913;-57
2023/10/24 03:56:26;;;;;;;5.60;2.60;;;;;;;17.37;43.46;100677.62;109961;1286;21937;-69
2023/10/24 03:58:52;;;;;;;5.70;3.10;;;;;;;17.40;43.51;100675.05;109955;1286;21911;-68
2023/10/24 04:01:17;;;;;;;7.00;3.50;;;;;;;17.42;43.46;100680.84;109966;1282;21862;-70
2023/10/24 04:03:43;;;;;;;8.30;2.90;;;;;;;17.47;43.58;100689.70;109967;1276;21925;-70
2023/10/24 04:06:10;;;;;;;11.10;3.20;;;;;;;17.52;43.66;100694.48;109963;1286;21986;-56
2023/10/24 04:08:37;;;;;;;13.30;3.40;;;;;;;17.55;43.72;100695.80;109972;1273;21910;-56
2023/10/24 04:11:03;;;;;;;14.30;4.80;;;;;;;17.59;43.68;100693.89;109966;1282;21929;-57
2023/10/24 04:13:29;;;;;;;13.80;4.70;;;;;;;17.62;43.74;100698.92;109966;1286;21927;-56
2023/10/24 04:15:58;;;;;;;14.00;4.90;;;;;;;17.64;43.65;100700.61;109947;1285;22015;-71
2023/10/24 04:18:26;;;;;;;9.40;3.10;;;;;;;17.65;43.66;100703.23;109977;1273;21919;-71
2023/10/24 04:20:51;;;;;;;12.70;3.60;;;;;;;17.65;43.71;100701.99;109961;1279;21946;-71
2023/10/24 04:23:17;;;;;;;6.90;2.90;;;;;;;17.64;43.63;100702.23;109965;1273;21942;-56
2023/10/24 04:25:43;;;;;;;6.50;2.70;;;;;;;17.64;43.66;100709.14;109917;1279;21939;-70
2023/10/24 04:28:08;;;;;;;10.30;2.80;;;;;;;17.63;43.67;100712.55;109944;1276;21927;-71
2023/10/24 04:30:34;;;;;;;8.70;2.90;;;;;;;17.62;43.71;100715.26;109968;1279;21844;-56
2023/10/24 04:32:59;;;;;;;7.90;3.30;;;;;;;17.60;43.62;100718.70;109968;1283;21939;-56
2023/10/24 04:35:25;;;;;;;9.00;3.60;;;;;;;17.57;43.59;100721.30;109887;1283;21957;-72
2023/10/24 04:37:51;;;;;;;8.00;3.80;;;;;;;17.52;43.56;100720.02;109183;1279;1001964;-57
2023/10/24 04:40:17;;;;;;;7.80;3.50;;;;;;;17.47;43.57;100719.33;109968;1273;21932;-57
2023/10/24 04:42:42;;;;;;;7.40;3.30;;;;;;;17.43;43.51;100718.04;109196;1286;1002218;-71
2023/10/24 04:45:08;;;;;;;10.80;3.30;;;;;;;17.41;43.53;100717.59;109953;1283;22033;-57
2023/10/24 04:47:34;;;;;;;11.50;3.20;;;;;;;17.39;43.73;100717.64;109906;1276;21943;-60
2023/10/24 04:49:59;;;;;;;11.20;3.30;;;;;;;17.38;43.67;100722.10;109872;1276;21922;-71
2023/10/24 04:52:25;;;;;;;6.00;3.50;;;;;;;17.32;43.74;100725.88;109906;1283;21856;-58
2023/10/24 04:54:50;;;;;;;4.60;2.70;;;;;;;17.23;43.77;100731.16;109941;1285;21941;-58
2023/10/24 04:57:16;;;;;;;7.90;3.40;;;;;;;17.16;43.76;100738.66;109914;1279;21956;-58
2023/10/24 04:59:41;;;;;;;15.00;3.20;;;;;;;17.09;43.85;100742.77;109958;1286;21944;-62
2023/10/24 05:02:07;;;;;;;8.10;3.00;;;;;;;17.07;43.96;100743.92;109950;1276;21946;-58
2023/10/24 05:04:32;;;;;;;7.20;2.70;;;;;;;17.06;43.96;100744.84;109961;1273;21940;-58
2023/10/24 05:06:58;;;;;;;9.70;2.90;;;;;;;17.06;44.11;100748.38;109962;1279;21957;-69
2023/10/24 05:09:24;;;;;;;5.50;2.90;;;;;;;17.07;44.22;100754.39;109953;1286;21931;-58
2023/10/24 05:11:50;;;;;;;5.80;2.80;;;;;;;17.07;44.25;100756.14;109942;1284;21947;-72
2023/10/24 05:14:16;;;;;;;6.30;2.70;;;;;;;17.10;44.29;100757.65;109971;1283;21995;-67
2023/10/24 05:16:41;;;;;;;8.00;2.90;;;;;;;17.14;44.42;100761.42;109960;1283;21976;-58
2023/10/24 05:19:07;;;;;;;8.60;3.30;;;;;;;17.18;44.56;100762.70;109919;1286;21951;-58
2023/10/24 05:21:32;;;;;;;12.20;3.50;;;;;;;17.23;44.64;100762.73;109957;1286;21956;-58
2023/10/24 05:23:59;;;;;;;8.50;3.30;;;;;;;17.28;44.75;100762.38;109849;1286;21922;-57
2023/10/24 05:26:25;;;;;;;6.80;3.10;;;;;;;17.34;44.76;100766.96;109965;1286;21934;-58
2023/10/24 05:28:50;;;;;;;9.60;3.00;;;;;;;17.40;44.77;100769.05;109962;1277;21943;-72
2023/10/24 05:31:16;;;;;;;10.90;3.60;;;;;;;17.47;44.91;100772.73;109956;1283;21951;-59
2023/10/24 05:33:42;;;;;;;7.20;3.20;;;;;;;17.53;45.00;100771.25;109972;1286;21928;-58
2023/10/24 05:36:07;;;;;;;7.70;4.10;;;;;;;17.59;44.96;100773.17;109978;1279;21923;-71
2023/10/24 05:38:33;;;;;;;9.10;3.10;;;;;;;17.66;45.10;100772.73;109946;1286;21949;-71
2023/10/24 05:41:00;;;;;;;8.30;3.00;;;;;;;17.74;45.05;100773.36;109962;1278;21901;-58
2023/10/24 05:43:26;;;;;;;7.00;3.20;;;;;;;17.81;45.09;100773.11;109954;1279;21863;-71
2023/10/24 05:45:51;;;;;;;8.20;2.80;;;;;;;17.89;45.03;100775.30;109964;1279;21913;-68
2023/10/24 05:48:17;;;;;;;18.30;2.70;;;;;;;18.07;45.12;100782.33;109960;1279;21970;-57
2023/10/24 05:50:43;;;;;;;13.30;3.50;;;;;;;18.30;45.09;100782.71;109956;1286;21914;-58
2023/10/24 05:53:09;;;;;;;8.40;3.20;;;;;;;18.51;45.14;100786.88;109902;1275;22001;-58
2023/10/24 05:55:35;;;;;;;17.60;4.10;;;;;;;18.64;44.97;100785.64;109934;1275;22014;-72
2023/10/24 05:58:00;;;;;;;14.50;4.60;;;;;;;18.74;44.88;100793.10;109925;1286;21991;-58
2023/10/24 06:00:26;;;;;;;18.90;4.80;;;;;;;18.80;44.91;100793.56;109917;1286;21944;-71
2023/10/24 06:02:52;;;;;;;44.30;6.70;;;;;;;18.88;44.99;100791.66;109934;1286;22029;-56
2023/10/24 06:05:17;;;;;;;15.60;3.90;;;;;;;18.99;45.00;100789.27;109943;1276;22013;-72
2023/10/24 06:07:43;;;;;;;15.60;4.30;;;;;;;19.13;45.09;100787.82;109923;1282;21976;-70
2023/10/24 06:10:09;;;;;;;13.70;4.40;;;;;;;19.27;45.14;100782.63;109852;1286;22010;-58
2023/10/24 06:12:34;;;;;;;18.50;4.50;;;;;;;19.43;45.16;100783.02;109945;1276;21947;-59
2023/10/24 06:15:03;;;;;;;9.40;3.70;;;;;;;19.58;44.99;100784.32;109934;1286;22077;-71
2023/10/24 06:17:29;;;;;;;9.60;3.70;;;;;;;19.72;44.86;100789.77;109925;1279;22003;-70
2023/10/24 06:19:54;;;;;;;10.20;4.20;;;;;;;19.84;44.70;100795.48;109888;1285;22012;-58
2023/10/24 06:22:20;;;;;;;10.80;4.40;;;;;;;19.94;44.61;100796.33;109945;1275;21973;-58
2023/10/24 06:24:46;;;;;;;8.10;4.20;;;;;;;20.03;44.38;100807.84;109955;1279;21896;-58
2023/10/24 06:27:13;;;;;;;8.50;4.10;;;;;;;20.13;44.58;100805.77;109953;1286;21911;-71
2023/10/24 06:29:40;;;;;;;10.10;4.40;;;;;;;20.30;44.60;100801.98;109977;1276;21937;-58
2023/10/24 06:32:06;;;;;;;10.30;4.10;;;;;;;20.49;44.55;100796.10;109967;1286;21995;-70
2023/10/24 06:34:33;;;;;;;9.20;3.90;;;;;;;20.67;44.32;100795.25;109983;1278;21966;-60
2023/10/24 06:36:59;;;;;;;9.00;4.30;;;;;;;20.81;44.04;100794.07;109964;1279;21911;-58
2023/10/24 06:39:25;;;;;;;10.40;5.30;;;;;;;20.97;44.00;100792.98;109937;1286;21973;-58
2023/10/24 06:41:50;;;;;;;13.10;4.10;;;;;;;21.10;43.80;100790.74;109949;1279;22046;-70
2023/10/24 06:44:16;;;;;;;9.70;3.90;;;;;;;21.18;43.53;100789.24;109969;1276;21963;-58
2023/10/24 06:46:42;;;;;;;7.90;4.30;;;;;;;21.25;43.44;100787.61;109966;1286;21919;-58
2023/10/24 06:49:08;;;;;;;10.30;5.10;;;;;;;21.40;43.43;100790.48;109986;1280;21948;-70
2023/10/24 06:51:34;;;;;;;10.90;4.50;;;;;;;21.50;43.21;100792.11;109954;1279;21938;-70
2023/10/24 06:53:59;;;;;;;29.80;5.20;;;;;;;21.60;43.21;100790.71;109973;1273;22014;-58
2023/10/24 06:56:25;;;;;;;15.40;5.10;;;;;;;21.70;43.14;100795.41;109940;1283;21857;-70
2023/10/24 06:58:51;;;;;;;13.30;4.40;;;;;;;21.83;43.17;100790.75;109956;1279;22016;-58
2023/10/24 07:01:16;;;;;;;9.50;3.80;;;;;;;22.01;42.90;100793.59;109960;1276;21924;-69
2023/10/24 07:03:42;;;;;;;7.60;4.20;;;;;;;22.16;42.87;100789.73;109190;1286;1002342;-70
2023/10/24 07:06:10;;;;;;;10.00;3.90;;;;;;;22.33;42.77;100788.63;109950;1279;21967;-59
2023/10/24 07:08:36;;;;;;;12.10;4.30;;;;;;;22.52;42.66;100787.60;109956;1273;22007;-59
2023/10/24 07:11:02;;;;;;;6.50;3.60;;;;;;;22.79;42.65;100788.08;109943;1283;21960;-71
2023/10/24 07:13:29;;;;;;;7.80;4.00;;;;;;;23.04;42.41;100783.58;109971;1273;21940;-71
2023/10/24 07:15:54;;;;;;;5.80;3.40;;;;;;;23.24;42.19;100776.54;109957;1286;21932;-58
2023/10/24 07:18:20;;;;;;;7.60;3.70;;;;;;;23.41;41.83;100781.10;109970;1283;21954;-70
2023/10/24 07:20:45;;;;;;;9.80;3.80;;;;;;;23.60;41.79;100783.06;109974;1283;21925;-70
2023/10/24 07:23:11;;;;;;;9.60;3.90;;;;;;;23.80;41.55;100779.67;109963;1286;21954;-58
2023/10/24 07:25:37;;;;;;;7.10;3.10;;;;;;;23.98;41.38;100778.60;109971;1279;21925;-70
2023/10/24 07:28:04;;;;;;;7.30;4.00;;;;;;;24.09;41.10;100778.27;109959;1279;21965;-59
2023/10/24 07:30:30;;;;;;;7.90;3.50;;;;;;;24.25;41.12;100778.70;109963;1286;21945;-59
2023/10/24 07:32:56;;;;;;;10.50;3.50;;;;;;;24.47;41.01;100777.27;109943;1283;21937;-58
2023/10/24 07:35:22;;;;;;;12.20;3.70;;;;;;;24.73;40.83;100768.27;109972;1273;21934;-59
2023/10/24 07:37:47;;;;;;;9.00;3.70;;;;;;;24.96;40.66;100763.20;109958;1275;21949;-58
2023/10/24 07:40:14;;;;;;;10.50;3.70;;;;;;;25.17;40.46;100760.18;109966;1286;22018;-59
2023/10/24 07:42:39;;;;;;;8.20;3.40;;;;;;;25.39;40.21;100759.56;109954;1282;22029;-70
2023/10/24 07:45:06;;;;;;;7.50;3.50;;;;;;;25.62;39.93;100755.35;109950;1279;22001;-58
2023/10/24 07:47:33;;;;;;;8.90;3.00;;;;;;;25.83;39.80;100750.30;109969;1279;21918;-58
2023/10/24 07:49:59;;;;;;;8.40;3.80;;;;;;;26.04;39.72;100746.30;109950;1286;22009;-59
2023/10/24 07:52:25;;;;;;;8.30;3.40;;;;;;;26.18;39.15;100743.35;109965;1279;21929;-70
2023/10/24 07:54:50;;;;;;;9.70;3.50;;;;;;;26.24;38.97;100738.73;109926;1284;21936;-58
2023/10/24 07:57:16;;;;;;;13.50;3.50;;;;;;;26.37;38.97;100742.17;109958;1286;21953;-58
2023/10/24 07:59:41;;;;;;;13.80;3.20;;;;;;;26.56;38.87;100745.96;109965;1273;21960;-70
2023/10/24 08:02:07;;;;;;;6.90;3.10;;;;;;;26.76;38.31;100745.61;109924;1286;21981;-69
2023/10/24 08:04:34;;;;;;;6.30;3.40;;;;;;;26.80;37.88;100745.63;109950;1286;21942;-68
2023/10/24 08:07:00;;;;;;;9.00;3.70;;;;;;;26.79;37.49;100744.84;109958;1286;22413;-68
2023/10/24 08:09:25;;;;;;;6.80;3.10;;;;;;;26.80;37.60;100741.87;109945;1284;22013;-58
2023/10/24 08:11:51;;;;;;;8.30;3.10;;;;;;;26.90;37.51;100739.92;109949;1279;21930;-58
2023/10/24 08:14:16;;;;;;;8.30;3.70;;;;;;;27.07;37.46;100739.36;109965;1283;21876;-59
2023/10/24 08:16:42;;;;;;;9.90;4.80;;;;;;;27.23;37.33;100740.45;109964;1279;21850;-69
2023/10/24 08:19:07;;;;;;;13.40;5.40;;;;;;;27.34;37.12;100744.45;109957;1279;21958;-73
2023/10/24 08:21:33;;;;;;;7.70;4.20;;;;;;;27.48;36.96;100744.67;109952;1279;21875;-74
2023/10/24 08:23:59;;;;;;;10.40;3.60;;;;;;;27.71;36.97;100744.15;109959;1279;21946;-73
2023/10/24 08:26:24;;;;;;;9.50;4.00;;;;;;;27.93;36.91;100744.45;109959;1276;21926;-74
2023/10/24 08:28:50;;;;;;;16.00;6.80;;;;;;;28.08;36.54;100748.13;109948;1275;21974;-71
2023/10/24 08:31:16;;;;;;;21.80;9.10;;;;;;;28.27;36.25;100749.16;109946;1286;22010;-68
2023/10/24 08:33:41;;;;;;;17.10;5.80;;;;;;;28.46;36.64;100746.53;109962;1283;21929;-58
2023/10/24 08:36:07;;;;;;;12.10;4.80;;;;;;;28.63;36.07;100743.29;109951;1279;21944;-58
2023/10/24 08:38:33;;;;;;;11.80;6.20;;;;;;;28.82;35.67;100739.38;109952;1283;21933;-58
2023/10/24 08:40:59;;;;;;;18.10;5.40;;;;;;;28.98;35.49;100735.74;109955;1279;22487;-70
2023/10/24 08:43:24;;;;;;;12.80;4.70;;;;;;;29.15;35.07;100735.05;109905;1279;21944;-60
2023/10/24 08:45:51;;;;;;;6.60;2.70;;;;;;;29.29;34.85;100734.33;109919;1279;21929;-70
2023/10/24 08:48:17;;;;;;;7.50;2.60;;;;;;;29.29;34.45;100732.02;109922;1286;21960;-59
2023/10/24 08:50:44;;;;;;;7.00;3.20;;;;;;;29.28;34.57;100730.65;109899;1287;21882;-59
2023/10/24 08:53:13;;;;;;;8.60;3.60;;;;;;;29.39;34.51;100731.17;109897;1285;21954;-67
2023/10/24 08:55:42;;;;;;;7.10;3.20;;;;;;;29.46;33.75;100731.17;109886;1276;21996;-69
2023/10/24 08:58:08;;;;;;;6.30;2.90;;;;;;;29.28;33.24;100726.54;109994;1276;21949;-59
2023/10/24 09:00:34;;;;;;;10.30;3.80;;;;;;;29.08;33.45;100722.37;109835;1287;21914;-59
2023/10/24 09:03:00;;;;;;;6.30;2.40;;;;;;;29.15;33.83;100719.48;109902;1281;21962;-69
2023/10/24 09:05:27;;;;;;;5.30;2.00;;;;;;;29.30;33.57;100718.75;109845;1283;21927;-70
2023/10/24 09:07:54;;;;;;;5.30;2.30;;;;;;;29.40;33.58;100714.64;109895;1287;21965;-60
2023/10/24 09:10:20;;;;;;;5.40;2.30;;;;;;;29.53;33.26;100705.95;109906;1287;21949;-59
2023/10/24 09:12:45;;;;;;;3.60;1.90;;;;;;;29.56;32.57;100705.31;109918;1283;21908;-59
2023/10/24 09:15:11;;;;;;;6.50;2.00;;;;;;;29.46;32.45;100704.40;109904;1281;21929;-59
2023/10/24 09:17:37;;;;;;;3.70;1.80;;;;;;;29.35;32.70;100706.20;109874;1276;22005;-69
2023/10/24 09:20:05;;;;;;;4.30;2.10;;;;;;;29.42;32.98;100702.21;109949;1286;21952;-59
2023/10/24 09:22:31;;;;;;;6.60;2.60;;;;;;;29.62;32.86;100703.02;109949;1286;21947;-69
2023/10/24 09:24:58;;;;;;;3.30;1.40;;;;;;;29.86;32.36;100701.76;109946;1285;21930;-58
2023/10/24 09:27:24;;;;;;;4.10;1.80;;;;;;;29.89;31.47;100704.73;109947;1286;22416;-70
2023/10/24 09:29:50;;;;;;;3.70;1.60;;;;;;;29.78;31.17;100700.52;109848;1286;21878;-69
2023/10/24 09:32:16;;;;;;;5.30;1.70;;;;;;;29.61;30.91;100695.84;109891;1287;21845;-68
2023/10/24 09:34:45;;;;;;;6.30;1.80;;;;;;;29.49;30.87;100691.79;109945;1277;22000;-65
2023/10/24 09:37:13;;;;;;;5.90;2.10;;;;;;;29.52;31.34;100687.95;109918;1282;21919;-59
2023/10/24 09:39:54;;;;;;;4.90;1.90;;;;;;;29.67;31.54;100681.38;109896;1287;21960;-69
2023/10/24 09:42:25;;;;;;;5.30;1.80;;;;;;;29.87;30.45;100675.09;109903;1286;21886;-69
2023/10/24 09:44:56;;;;;;;4.30;2.20;;;;;;;29.95;30.94;100665.88;109909;1287;21917;-70
2023/10/24 09:47:28;;;;;;;8.60;2.30;;;;;;;30.23;31.58;100659.29;109910;1285;21889;-59
2023/10/24 09:49:55;;;;;;;3.00;1.50;;;;;;;30.56;31.73;100660.56;109910;1287;21929;-71
2023/10/24 09:52:22;;;;;;;5.30;1.80;;;;;;;30.81;30.73;100656.34;109931;1287;21931;-71
2023/10/24 09:54:49;;;;;;;5.20;2.00;;;;;;;30.69;29.92;100654.20;109902;1287;22284;-60
2023/10/24 09:57:19;;;;;;;4.50;1.40;;;;;;;30.45;30.06;100654.75;109901;1276;21967;-59
2023/10/24 09:59:51;;;;;;;3.50;1.50;;;;;;;30.28;30.27;100648.30;109916;1287;21856;-59
2023/10/24 10:02:19;;;;;;;8.10;2.80;;;;;;;30.32;30.46;100644.88;109907;1287;21956;-69
2023/10/24 10:04:49;;;;;;;5.40;2.00;;;;;;;30.60;30.62;100641.19;109917;1276;22014;-59
2023/10/24 10:07:16;;;;;;;3.60;1.70;;;;;;;30.93;30.54;100646.33;109921;1280;21928;-60
2023/10/24 10:09:43;;;;;;;5.90;2.00;;;;;;;31.14;30.03;100645.62;109916;1281;21918;-70
2023/10/24 10:12:12;;;;;;;4.00;1.70;;;;;;;31.13;30.00;100632.27;109928;1285;21945;-60
2023/10/24 10:15:07;;;;;;;8.50;2.10;;;;;;;31.09;29.62;100625.77;109906;1287;21808;-60
2023/10/24 10:17:44;;;;;;;4.80;2.00;;;;;;;30.95;29.69;100627.52;109893;1276;22011;-60
2023/10/24 10:20:15;;;;;;;5.60;1.80;;;;;;;30.75;29.49;100627.35;109956;1285;22304;-69
2023/10/24 10:22:53;;;;;;;5.30;1.50;;;;;;;30.53;29.53;100623.77;109956;1279;21951;-60
2023/10/24 10:25:27;;;;;;;6.60;1.80;;;;;;;30.38;29.53;100620.09;109958;1279;21916;-60
2023/10/24 10:27:55;;;;;;;3.20;1.40;;;;;;;30.30;29.44;100628.44;109964;1283;22368;-60
2023/10/24 10:30:29;;;;;;;5.90;1.80;;;;;;;30.25;29.52;100635.16;109956;1286;21987;-60
2023/10/24 10:33:18;;;;;;;6.10;1.70;;;;;;;30.33;29.57;100633.17;109883;1285;21966;-69
2023/10/24 10:35:54;;;;;;;3.10;1.40;;;;;;;30.33;29.14;100628.11;109901;1279;21917;-70
2023/10/24 10:38:38;;;;;;;4.40;1.50;;;;;;;30.17;29.19;100627.11;109937;1281;21927;-70
2023/10/24 10:41:22;;;;;;;4.00;1.60;;;;;;;29.91;29.06;100623.08;110001;1285;21915;-69
2023/10/24 10:44:05;;;;;;;3.70;1.70;;;;;;;29.78;29.36;100622.35;110016;1287;21837;-69
2023/10/24 10:46:32;;;;;;;3.10;1.50;;;;;;;29.59;29.40;100615.73;110002;1282;22349;-69
2023/10/24 10:49:02;;;;;;;4.80;1.70;;;;;;;29.47;29.40;100609.94;109908;1287;21960;-59
2023/10/24 10:51:32;;;;;;;4.00;1.40;;;;;;;29.45;29.65;100604.20;109898;1282;21897;-69
2023/10/24 10:54:21;;;;;;;3.70;1.30;;;;;;;29.38;29.52;100601.55;109882;1287;21938;-69
2023/10/24 10:56:47;;;;;;;4.10;1.40;;;;;;;29.31;29.62;100603.38;109923;1286;21950;-60
2023/10/24 10:59:17;;;;;;;4.20;1.60;;;;;;;29.31;29.30;100608.08;109905;1282;21971;-68
2023/10/24 11:01:55;;;;;;;4.70;1.60;;;;;;;29.18;29.31;100608.13;109921;1287;22017;-60
2023/10/24 11:04:21;;;;;;;7.20;1.70;;;;;;;29.05;29.29;100607.06;109915;1287;22347;-60
2023/10/24 11:06:54;;;;;;;4.80;1.50;;;;;;;28.97;29.43;100602.31;109897;1287;21912;-60
2023/10/24 11:09:20;;;;;;;2.90;1.50;;;;;;;28.90;29.53;100586.48;109913;1287;21963;-60
2023/10/24 11:11:47;;;;;;;3.10;1.70;;;;;;;28.96;29.47;100579.09;109931;1287;21926;-69